Waterford Township, Michigan
Current Conditions -  °F | °C
As of 11:53 AM on Thursday 30 Oct 2014 (Local Time) from KPTK Reporting Station
Broken Clouds Broken Clouds  
Wind Chill: 42°   Ceiling: 3800
Heat Index: 46°   Visibility: 10mi
Dew Point: 33°   Wind: 7mph
Humidity: 61%   Direction: 280°W
Pressure: 30.12"   Gusts: NA
Location:  42.6485°N, 83.3542°W
Report Text: KPTK 301553Z 28006KT 10SM FEW025 BKN038 08/01 A3012 RMK AO2 SLP204 T00780006
Loading
Personal Weather Stations






























Interactive Weather Map
Tropical Storm Tracking
New forecast layout! Learn more

10-Day Weather Forecast

Advertisements
Track Severe Weather on mobile